Crew | Aerofun Virtual



 METAR AND TAF INFORMATION
METAR FOR GCGM
ADDS - METARS form results

(1527 UTC 24 May 2019)
Data provider http://aviationweather.gov/metar/data/
 
METAR text: GCGM 241500Z 20005KT 160V280 CAVOK 22/14 Q1018 RMK R09/VRB04KT ARP/18005KT 140V250
Conditions at: GCGM (LA GOMERA ARPT , ES) observed 1500 UTC 24 May 2019
Temperature: 22.0°C (72°F)
Dewpoint: 14.0°C (57°F) [RH = 60%]
Pressure (altimeter): 30.06 inches Hg (1018.0 mb)
Winds: from the SSW (200 degrees) at 6 MPH (5 knots; 2.6 m/s)
Visibility: 6 or more miles (10+ km)
Ceiling: ceiling and visibility are OK
Clouds: unknown
Weather: no significant weather observed at this time

METAR text: GCGM 241430Z 20005KT 150V270 9999 FEW030 22/14 Q1018 RMK R09/16004KT 110V230 ARP/18005KT 140V260
Conditions at: GCGM (LA GOMERA ARPT , ES) observed 1430 UTC 24 May 2019
Temperature: 22.0°C (72°F)
Dewpoint: 14.0°C (57°F) [RH = 60%]
Pressure (altimeter): 30.06 inches Hg (1018.0 mb)
Winds: from the SSW (200 degrees) at 6 MPH (5 knots; 2.6 m/s)
Visibility: 6 or more miles (10+ km)
Ceiling: at least 12,000 feet AGL
Clouds: few clouds at 3000 feet AGL
Weather: no significant weather observed at this time

Forecast for: GCGM (LA GOMERA ARPT , ES)
Text: TAF GCGM 241400Z 2415/2515 22005KT 9999 FEW030 TX24/2515Z TN17/2506Z
Forecast period: 1500 UTC 24 May 2019 to 1500 UTC 25 May 2019
Forecast type: FROM: standard forecast or significant change
Winds: from the SW (220 degrees) at 6 MPH (5 knots; 2.6 m/s)
Visibility: 6 or more miles 10+ km)
Ceiling: at least 12,000 feet AGL
Clouds: few clouds at 3000 feet AGL
Weather: no significant weather forecast for this period

 AIRPORT MAP

 RUNWAY INFORMATION
Runway 09 Runway length 4921 ft Runway width 98 ft
Runway elevation 716 ft Runway displaced threshold 0 ft Runway heading 81
Runway 27 Runway length 4921 ft Runway width 98 ft
Runway elevation 712 ft Runway displaced threshold 0 ft Runway heading 261

 AIRPORT FREQUENCIES
Type GND Name GND Frequency 121.7 MHZ
Type TWR Name TWR Frequency 118.4 MHZ

 AIRPORT NEAR NAVIGATION AIDS
Type VOR-DME Name La Gomera Frequency 116000 KHZ